Wyatt, Indiana
Current Conditions -  °F | °C
As of 6:54 PM on Friday 28 Nov 2014 (Local Time) from KSBN Reporting Station
Few Clouds Few Clouds  
Wind Chill: 20°   Ceiling: Unl
Heat Index: 29°   Visibility: 10mi
Dew Point: 20°   Wind: 10mph
Humidity: 69%   Direction: 170°S
Pressure: 30.06"   Gusts: NA
Location:  41.53°N, 86.17°W
Report Text: KSBN 282354Z 17009KT 10SM FEW110 M02/M07 A3006 RMK AO2 SLP190 T10171067 11017 21033 55006
Loading
Personal Weather Stations






























Interactive Weather Map New forecast layout! Learn more

10-Day Weather Forecast

Advertisements
Track Severe Weather on mobile